createdAt,value
2023-03-12T04:12:48.886Z,7.33
2023-03-12T04:15:20.655Z,6.47
2023-03-12T04:17:50.905Z,6.83
2023-03-12T04:20:22.072Z,6.00
2023-03-12T04:22:50.942Z,6.20
2023-03-12T04:25:46.683Z,6.23
2023-03-12T04:28:41.122Z,6.50
2023-03-12T04:31:32.485Z,5.60
2023-03-12T04:34:09.264Z,6.00
2023-03-12T04:36:42.422Z,5.97
2023-03-12T04:39:32.444Z,6.87
2023-03-12T04:42:06.381Z,7.20
2023-03-12T04:44:52.092Z,6.73
2023-03-12T04:47:26.830Z,7.87
2023-03-12T04:50:04.255Z,6.83
2023-03-12T04:52:38.380Z,6.03
2023-03-12T04:55:12.815Z,8.43
2023-03-12T04:57:54.718Z,11.63
2023-03-12T05:00:35.485Z,10.97
2023-03-12T05:03:18.933Z,8.23
2023-03-12T05:06:18.675Z,9.73
2023-03-12T05:08:54.891Z,7.43
2023-03-12T05:11:39.883Z,13.27
2023-03-12T05:14:31.604Z,11.47
2023-03-12T05:17:17.431Z,13.10
2023-03-12T05:20:06.159Z,9.53
2023-03-12T05:22:39.856Z,7.13
2023-03-12T05:25:24.485Z,9.13
2023-03-12T05:28:08.058Z,6.77
2023-03-12T05:30:53.358Z,6.20
2023-03-12T05:33:28.881Z,6.30
2023-03-12T05:36:05.303Z,6.13
2023-03-12T05:38:47.099Z,6.50
2023-03-12T05:41:35.720Z,6.20
2023-03-12T05:44:31.442Z,6.23
2023-03-12T05:47:20.547Z,5.90
2023-03-12T05:49:58.213Z,5.10
2023-03-12T05:52:42.281Z,5.70
2023-03-12T05:56:25.764Z,5.53
2023-03-12T06:00:24.020Z,5.43
2023-03-12T06:06:45.915Z,5.87
2023-03-12T06:10:12.630Z,7.03
2023-03-12T06:13:09.833Z,6.20
2023-03-12T06:16:10.046Z,6.03
2023-03-12T06:19:18.860Z,6.77
2023-03-12T06:22:23.451Z,7.73
2023-03-12T06:24:53.833Z,7.33
2023-03-12T06:27:38.727Z,6.53
2023-03-12T06:30:33.375Z,5.73
2023-03-12T06:33:12.023Z,6.43
2023-03-12T06:35:48.812Z,5.93
2023-03-12T06:38:38.829Z,6.57
2023-03-12T06:41:26.282Z,5.10
2023-03-12T06:47:00.980Z,5.30
2023-03-12T06:49:39.830Z,5.00
2023-03-12T06:52:24.425Z,4.20
2023-03-12T06:55:20.383Z,3.97
2023-03-12T06:58:10.059Z,3.80
2023-03-12T07:01:30.592Z,3.67
2023-03-12T07:04:51.911Z,3.03
2023-03-12T07:08:26.709Z,4.10
2023-03-12T07:11:26.760Z,2.53
2023-03-12T07:15:47.949Z,2.70
2023-03-12T07:18:26.040Z,2.37
2023-03-12T07:22:15.704Z,2.07
2023-03-12T07:24:55.483Z,1.70
2023-03-12T07:28:07.841Z,1.95
2023-03-12T07:30:47.951Z,1.98
2023-03-12T07:34:24.883Z,1.80
2023-03-12T07:41:17.926Z,1.90
2023-03-12T07:43:53.218Z,1.48
2023-03-12T07:47:28.839Z,1.58
2023-03-12T07:50:03.695Z,1.80
2023-03-12T07:52:58.551Z,1.83
2023-03-12T07:55:47.512Z,1.83
2023-03-12T07:58:30.666Z,1.80
2023-03-12T08:01:19.728Z,1.50
2023-03-12T08:03:53.702Z,1.57
2023-03-12T08:06:44.590Z,1.40
2023-03-12T08:09:20.111Z,1.80
2023-03-12T08:12:03.200Z,1.60
2023-03-12T08:15:10.134Z,1.70
2023-03-12T08:18:35.382Z,1.63
2023-03-12T08:21:16.701Z,1.60
2023-03-12T08:24:07.843Z,1.30
2023-03-12T08:26:49.573Z,1.67
2023-03-12T08:29:24.472Z,1.73
2023-03-12T08:32:53.256Z,1.77
2023-03-12T08:35:31.390Z,1.80
2023-03-12T08:41:30.746Z,1.70
2023-03-12T08:45:07.789Z,1.70
2023-03-12T08:47:48.403Z,2.30
2023-03-12T08:50:52.804Z,2.07
2023-03-12T08:53:43.095Z,1.80
2023-03-12T08:56:50.769Z,2.07
2023-03-12T08:59:46.800Z,1.90
2023-03-12T09:03:15.969Z,1.77
2023-03-12T09:06:25.079Z,2.10
2023-03-12T09:09:33.985Z,1.47
2023-03-12T09:12:32.462Z,1.87
2023-03-12T09:15:30.368Z,1.53
2023-03-12T09:18:42.147Z,1.40
2023-03-12T09:21:35.887Z,1.83
2023-03-12T09:25:30.557Z,1.40
2023-03-12T09:27:41.961Z,1.17
2023-03-12T09:33:44.278Z,1.23
2023-03-12T09:36:41.241Z,1.33
2023-03-12T09:39:21.279Z,1.43
2023-03-12T09:42:27.917Z,1.80
2023-03-12T09:50:11.650Z,1.50
2023-03-12T09:54:41.363Z,1.63
2023-03-12T09:56:24.456Z,1.60
2023-03-12T10:00:58.729Z,1.40
2023-03-12T10:03:30.058Z,1.20
2023-03-12T10:06:23.806Z,1.50
2023-03-12T10:10:13.276Z,1.20
2023-03-12T10:13:48.147Z,1.20
2023-03-12T10:16:53.651Z,1.70
2023-03-12T10:20:00.875Z,1.70
2023-03-12T10:23:58.915Z,1.90
2023-03-12T10:26:11.735Z,1.70
2023-03-12T10:28:58.841Z,2.03
2023-03-12T10:31:31.034Z,2.40
2023-03-12T10:34:21.534Z,1.80
2023-03-12T10:36:53.357Z,3.17
2023-03-12T10:39:34.819Z,2.00
2023-03-12T10:42:25.035Z,2.53
2023-03-12T10:45:25.093Z,14.23
2023-03-12T10:48:11.977Z,2.70
2023-03-12T10:51:10.922Z,2.63
2023-03-12T10:53:49.159Z,1.53
2023-03-12T10:56:31.089Z,1.30
2023-03-12T10:59:24.210Z,4.13
2023-03-12T11:01:58.315Z,2.65
2023-03-12T11:04:35.692Z,2.65
2023-03-12T11:07:30.725Z,2.65
2023-03-12T11:10:27.423Z,6.90
2023-03-12T11:13:22.963Z,2.70
2023-03-12T11:16:07.423Z,2.97
2023-03-12T11:18:58.949Z,2.58
2023-03-12T11:22:01.752Z,3.10
2023-03-12T11:24:42.110Z,7.05
2023-03-12T11:27:27.648Z,2.20
2023-03-12T11:30:44.783Z,2.17
2023-03-12T11:33:25.433Z,3.33
2023-03-12T11:36:25.230Z,1.92
2023-03-12T11:39:04.703Z,9.65
2023-03-12T11:41:58.079Z,3.35
2023-03-12T11:45:25.883Z,3.78
2023-03-12T11:48:03.961Z,1.80
2023-03-12T11:51:00.031Z,5.53
2023-03-12T11:54:04.820Z,2.38
2023-03-12T11:56:52.998Z,10.50
2023-03-12T11:59:47.310Z,7.25
2023-03-12T12:03:09.595Z,1.80
2023-03-12T12:06:06.155Z,7.25
2023-03-12T12:09:27.337Z,2.28
2023-03-12T12:12:37.600Z,3.73
2023-03-12T12:15:43.119Z,3.67
2023-03-12T12:26:26.090Z,1.83
2023-03-12T12:29:48.193Z,1.87
2023-03-12T12:33:25.444Z,1.90
2023-03-12T12:36:09.444Z,2.07
2023-03-12T12:38:54.942Z,1.97
2023-03-12T12:41:29.844Z,2.47
2023-03-12T12:44:03.058Z,4.07
2023-03-12T12:46:52.872Z,2.50
2023-03-12T12:49:34.726Z,2.30
2023-03-12T12:52:28.397Z,2.47
2023-03-12T12:55:35.552Z,1.93
2023-03-12T12:58:15.309Z,2.43
2023-03-12T13:01:13.277Z,2.03
2023-03-12T13:04:13.822Z,2.13
2023-03-12T13:07:39.545Z,2.33
2023-03-12T13:11:02.453Z,1.93
2023-03-12T13:13:47.132Z,1.50
2023-03-12T13:16:51.893Z,1.70
2023-03-12T13:19:51.967Z,1.70
2023-03-12T13:23:04.059Z,1.67
2023-03-12T13:26:01.715Z,1.67
2023-03-12T13:29:12.714Z,1.70
2023-03-12T13:35:03.486Z,1.73
2023-03-12T13:38:10.031Z,1.70
2023-03-12T13:41:08.869Z,1.23
2023-03-12T13:44:03.892Z,1.27
2023-03-12T13:46:55.749Z,1.33
2023-03-12T13:49:48.605Z,1.20
2023-03-12T13:52:30.258Z,1.50
2023-03-12T13:55:42.476Z,2.00
2023-03-12T13:59:09.004Z,1.40
2023-03-12T14:01:50.227Z,10.30
2023-03-12T14:05:08.113Z,2.03
2023-03-12T14:08:12.176Z,1.60
2023-03-12T14:15:13.084Z,1.83
2023-03-12T14:18:03.349Z,1.67
2023-03-12T14:20:47.237Z,2.00
2023-03-12T14:23:49.251Z,2.00
2023-03-12T14:27:10.255Z,2.23
2023-03-12T14:30:22.595Z,2.40
2023-03-12T14:33:09.374Z,2.47
2023-03-12T14:36:04.901Z,2.10
2023-03-12T14:38:41.382Z,2.13
2023-03-12T14:41:32.840Z,2.30
2023-03-12T14:44:36.084Z,3.40
2023-03-12T14:47:38.889Z,2.13
2023-03-12T14:51:29.563Z,2.90
2023-03-12T14:58:28.749Z,4.47
2023-03-12T15:01:47.400Z,2.53
2023-03-12T15:04:41.830Z,3.60
2023-03-12T15:07:41.754Z,3.70
2023-03-12T15:10:42.315Z,2.67
2023-03-12T15:13:42.717Z,2.33
2023-03-12T15:16:21.620Z,2.23
2023-03-12T15:19:54.246Z,3.00
2023-03-12T15:22:30.755Z,2.67
2023-03-12T15:25:29.627Z,2.47
2023-03-12T15:28:36.092Z,5.13
2023-03-12T15:31:36.828Z,5.73
2023-03-12T15:34:32.902Z,3.03
2023-03-12T15:38:43.419Z,2.37
2023-03-12T15:42:01.438Z,1.90
2023-03-12T15:45:21.253Z,2.23
2023-03-12T15:48:13.335Z,2.50
2023-03-12T15:51:01.658Z,2.20
2023-03-12T15:54:05.195Z,2.30
2023-03-12T16:06:00.272Z,2.30
2023-03-12T16:09:37.719Z,2.70
2023-03-12T16:16:24.286Z,2.93
2023-03-12T16:19:45.919Z,2.17
2023-03-12T16:22:56.262Z,3.40
2023-03-12T16:26:04.522Z,2.57
2023-03-12T16:29:43.107Z,3.10
2023-03-12T16:32:04.803Z,2.87
2023-03-12T16:34:41.555Z,3.60
2023-03-12T16:37:59.909Z,3.33
2023-03-12T16:45:00.864Z,4.30
2023-03-12T16:48:15.591Z,4.50
2023-03-12T16:51:00.021Z,5.00
2023-03-12T16:53:39.914Z,5.90
2023-03-12T16:56:36.074Z,7.60
2023-03-12T16:59:34.568Z,7.63
2023-03-12T17:02:28.039Z,11.23
2023-03-12T17:06:05.811Z,15.70
2023-03-12T17:09:01.173Z,23.70
2023-03-12T17:12:08.693Z,22.63
2023-03-12T17:14:59.554Z,14.10
2023-03-12T17:21:42.531Z,9.17
2023-03-12T17:24:33.854Z,8.23
2023-03-12T17:27:45.396Z,8.30
2023-03-12T17:30:25.580Z,7.93
2023-03-12T17:33:33.124Z,6.83
2023-03-12T17:40:32.994Z,7.30
2023-03-12T17:43:37.930Z,6.47
2023-03-12T17:46:58.825Z,6.90
2023-03-12T17:49:43.490Z,6.70
2023-03-12T17:52:26.346Z,5.70
2023-03-12T17:55:21.758Z,6.47
2023-03-12T17:58:44.122Z,7.77
2023-03-12T18:01:26.888Z,7.00
2023-03-12T18:04:32.997Z,7.93
2023-03-12T18:08:41.501Z,7.87
2023-03-12T18:11:49.993Z,6.47
2023-03-12T18:13:40.898Z,6.33
2023-03-12T18:16:27.181Z,6.30
2023-03-12T18:19:08.884Z,7.00
2023-03-12T18:22:16.735Z,7.13
2023-03-12T18:24:57.050Z,7.17
2023-03-12T18:27:28.747Z,8.70
2023-03-12T18:30:38.922Z,8.23
2023-03-12T18:34:10.800Z,8.17
2023-03-12T18:37:02.832Z,7.80
2023-03-12T18:44:05.127Z,7.30
2023-03-12T18:46:56.237Z,7.73
2023-03-12T18:49:58.835Z,7.37
2023-03-12T18:52:35.330Z,7.97
2023-03-12T18:55:10.739Z,9.00
2023-03-12T18:58:07.267Z,8.27
2023-03-12T19:00:41.387Z,6.63
2023-03-12T19:03:41.319Z,6.33
2023-03-12T19:07:39.679Z,8.60
2023-03-12T19:11:09.620Z,8.07
2023-03-12T19:14:02.242Z,7.30
2023-03-12T19:16:39.015Z,8.10
2023-03-12T19:19:26.556Z,6.17
2023-03-12T19:28:21.045Z,10.17
2023-03-12T19:31:00.032Z,9.47
2023-03-12T19:33:36.631Z,7.50
2023-03-12T19:36:49.784Z,9.13
2023-03-12T19:43:39.565Z,8.77
2023-03-12T19:47:11.844Z,9.00
2023-03-12T19:49:46.191Z,8.63
2023-03-12T19:52:33.486Z,8.83
2023-03-12T19:55:20.602Z,9.17
2023-03-12T19:58:03.829Z,9.43
2023-03-12T20:00:54.685Z,10.67
2023-03-12T20:03:34.802Z,9.60
2023-03-12T20:06:59.047Z,9.83
2023-03-12T20:09:43.264Z,8.40
2023-03-12T20:12:47.257Z,9.83
2023-03-12T20:15:36.774Z,8.83
2023-03-12T20:18:12.521Z,9.10
2023-03-12T20:20:41.367Z,10.10
2023-03-12T20:23:10.444Z,9.83
2023-03-12T20:25:50.673Z,12.32
2023-03-12T20:28:49.457Z,9.03
2023-03-12T20:31:31.476Z,9.97
2023-03-12T20:34:09.382Z,10.20
2023-03-12T20:36:54.624Z,9.57
2023-03-12T20:39:28.236Z,8.97
2023-03-12T20:42:11.872Z,8.90
2023-03-12T20:44:52.324Z,9.33
2023-03-12T20:47:41.318Z,7.70
2023-03-12T20:50:27.387Z,6.50
2023-03-12T20:53:03.092Z,8.00
2023-03-12T20:55:35.695Z,6.53
2023-03-12T20:58:06.630Z,7.00
2023-03-12T21:00:43.106Z,6.63
2023-03-12T21:03:25.529Z,5.83
2023-03-12T21:06:08.384Z,6.13
2023-03-12T21:08:48.730Z,5.73
2023-03-12T21:11:40.274Z,5.63
2023-03-12T21:14:15.338Z,5.70
2023-03-12T21:16:47.310Z,5.73
2023-03-12T21:19:28.885Z,6.07
2023-03-12T21:22:25.478Z,6.07
2023-03-12T21:24:59.230Z,5.67
2023-03-12T21:27:49.936Z,7.13
2023-03-12T21:30:24.683Z,6.00
2023-03-12T21:33:19.950Z,6.63
2023-03-12T21:36:01.805Z,7.50
2023-03-12T21:38:46.479Z,7.33
2023-03-12T21:41:21.042Z,7.93
2023-03-12T21:44:11.131Z,6.40
2023-03-12T21:46:53.497Z,6.47
2023-03-12T21:49:51.060Z,9.87
2023-03-12T21:52:27.586Z,7.93
2023-03-12T21:55:05.951Z,6.87
2023-03-12T21:58:06.598Z,8.03
2023-03-12T22:00:52.293Z,7.10
2023-03-12T22:03:48.426Z,7.67
2023-03-12T22:06:21.981Z,8.40
2023-03-12T22:08:59.704Z,8.23
2023-03-12T22:11:53.936Z,7.30
2023-03-12T22:14:26.308Z,6.37
2023-03-12T22:17:48.390Z,7.43
2023-03-12T22:20:06.760Z,7.30
2023-03-12T22:23:30.478Z,8.00
2023-03-12T22:26:04.142Z,7.40
2023-03-12T22:28:55.587Z,7.93
2023-03-12T22:31:34.266Z,7.80
2023-03-12T22:34:09.175Z,8.53
2023-03-12T22:36:42.119Z,8.20
2023-03-12T22:39:21.117Z,9.30
2023-03-12T22:41:54.878Z,10.27
2023-03-12T22:44:38.853Z,10.50
2023-03-12T22:47:14.591Z,10.33
2023-03-12T22:49:58.637Z,10.37
2023-03-12T22:52:34.204Z,10.87
2023-03-12T22:55:19.519Z,10.83
2023-03-12T22:57:49.161Z,11.17
2023-03-12T23:00:26.200Z,10.63
2023-03-12T23:03:00.898Z,11.90
2023-03-12T23:05:39.067Z,12.17
